createdAt,value
2017-06-26T00:02:03.517Z,78.40
2017-06-26T00:04:30.969Z,78.60
2017-06-26T00:06:58.422Z,78.50
2017-06-26T00:09:25.887Z,78.60
2017-06-26T00:11:53.355Z,78.00
2017-06-26T00:14:21.611Z,78.60
2017-06-26T00:16:49.075Z,78.10
2017-06-26T00:19:16.530Z,78.30
2017-06-26T00:21:43.992Z,78.30
2017-06-26T00:24:11.547Z,78.20
2017-06-26T00:26:39.100Z,77.90
2017-06-26T00:29:06.657Z,78.00
2017-06-26T00:31:34.119Z,77.70
2017-06-26T00:34:01.574Z,77.60
2017-06-26T00:36:29.033Z,77.40
2017-06-26T00:38:56.491Z,77.40
2017-06-26T00:41:23.953Z,77.90
2017-06-26T00:43:51.417Z,77.90
2017-06-26T00:46:19.668Z,78.50
2017-06-26T00:48:47.227Z,78.40
2017-06-26T00:51:14.693Z,78.40
2017-06-26T00:53:42.157Z,78.00
2017-06-26T00:58:42.468Z,77.70
2017-06-26T01:01:09.959Z,78.00
2017-06-26T01:03:38.218Z,78.00
2017-06-26T01:06:05.768Z,78.00
2017-06-26T01:08:33.228Z,78.00
2017-06-26T01:11:00.779Z,78.20
2017-06-26T01:13:28.340Z,78.60
2017-06-26T01:15:55.812Z,78.00
2017-06-26T01:18:23.356Z,78.40
2017-06-26T01:20:50.811Z,78.70
2017-06-26T01:23:18.373Z,78.80
2017-06-26T01:25:45.836Z,78.70
2017-06-26T01:28:13.292Z,78.50
2017-06-26T01:30:40.757Z,77.90
2017-06-26T01:33:08.211Z,78.20
2017-06-26T01:35:35.757Z,78.30
2017-06-26T01:38:03.208Z,78.40
2017-06-26T01:40:30.668Z,78.80
2017-06-26T01:42:58.529Z,78.30
2017-06-26T01:45:25.996Z,78.20
2017-06-26T01:47:53.557Z,78.50
2017-06-26T01:50:21.112Z,78.10
2017-06-26T01:52:48.585Z,78.00
2017-06-26T01:55:16.851Z,78.60
2017-06-26T01:57:44.303Z,78.20
2017-06-26T02:00:11.862Z,78.40
2017-06-26T02:02:39.352Z,78.40
2017-06-26T02:05:06.807Z,77.90
2017-06-26T02:07:34.277Z,78.00
2017-06-26T02:10:01.790Z,77.90
2017-06-26T02:12:29.244Z,77.60
2017-06-26T02:14:56.797Z,77.40
2017-06-26T02:17:24.255Z,77.50
2017-06-26T02:19:51.713Z,77.30
2017-06-26T02:22:19.168Z,77.30
2017-06-26T02:24:46.637Z,77.00
2017-06-26T02:27:14.193Z,76.60
2017-06-26T02:29:41.750Z,77.00
2017-06-26T02:32:09.304Z,76.70
2017-06-26T02:34:36.765Z,76.90
2017-06-26T02:37:04.316Z,77.10
2017-06-26T02:39:31.780Z,76.80
2017-06-26T02:41:59.343Z,76.90
2017-06-26T02:44:26.817Z,76.80
2017-06-26T02:46:55.060Z,76.80
2017-06-26T02:49:22.512Z,76.80
2017-06-26T02:51:49.981Z,76.90
2017-06-26T02:54:17.547Z,77.20
2017-06-26T02:56:45.101Z,77.10
2017-06-26T02:59:12.648Z,76.90
2017-06-26T03:01:40.218Z,77.20
2017-06-26T03:04:07.681Z,77.30
2017-06-26T03:06:35.237Z,77.80
2017-06-26T03:09:02.684Z,77.70
2017-06-26T03:11:42.120Z,77.40
2017-06-26T03:14:09.581Z,77.30
2017-06-26T03:16:37.144Z,77.20
2017-06-26T03:19:04.698Z,76.70
2017-06-26T03:21:32.257Z,77.50
2017-06-26T03:23:59.817Z,77.00
2017-06-26T03:26:27.381Z,77.30
2017-06-26T03:28:54.832Z,77.50
2017-06-26T03:31:22.389Z,77.90
2017-06-26T03:33:49.856Z,77.90
2017-06-26T03:36:17.303Z,78.20
2017-06-26T03:38:44.768Z,78.30
2017-06-26T03:41:13.036Z,77.70
2017-06-26T03:43:40.505Z,78.40
2017-06-26T03:46:08.733Z,78.30
2017-06-26T03:48:36.316Z,78.30
2017-06-26T03:51:03.884Z,78.30
2017-06-26T03:53:31.500Z,78.10
2017-06-26T03:55:58.944Z,78.50
2017-06-26T03:58:26.448Z,78.40
2017-06-26T04:00:53.914Z,78.60
2017-06-26T04:03:21.374Z,78.70
2017-06-26T04:05:48.838Z,78.60
2017-06-26T04:08:17.055Z,78.70
2017-06-26T04:10:44.551Z,78.70
2017-06-26T04:13:12.108Z,78.90
2017-06-26T04:15:39.574Z,78.20
2017-06-26T04:18:07.128Z,78.20
2017-06-26T04:20:34.600Z,78.50
2017-06-26T04:23:02.857Z,78.20
2017-06-26T04:25:30.319Z,78.10
2017-06-26T04:27:57.880Z,78.70
2017-06-26T04:30:25.427Z,79.00
2017-06-26T04:32:52.884Z,79.20
2017-06-26T04:35:20.449Z,79.30
2017-06-26T04:37:47.917Z,79.30
2017-06-26T04:40:16.242Z,79.70
2017-06-26T04:42:43.698Z,79.00
2017-06-26T04:45:11.160Z,79.70
2017-06-26T04:47:38.633Z,79.80
2017-06-26T04:50:06.083Z,79.10
2017-06-26T04:52:33.668Z,79.20
2017-06-26T04:55:01.115Z,79.20
2017-06-26T04:57:28.581Z,78.80
2017-06-26T04:59:56.132Z,79.30
2017-06-26T05:02:23.687Z,79.30
2017-06-26T05:04:51.248Z,78.90
2017-06-26T05:07:18.773Z,78.80
2017-06-26T05:09:46.269Z,79.10
2017-06-26T05:12:13.729Z,79.20
2017-06-26T05:14:41.186Z,79.30
2017-06-26T05:17:08.748Z,79.30
2017-06-26T05:19:36.983Z,78.70
2017-06-26T05:22:04.475Z,78.60
2017-06-26T05:24:31.940Z,77.90
2017-06-26T05:27:00.203Z,79.30
2017-06-26T05:29:27.673Z,79.30
2017-06-26T05:31:55.132Z,79.60
2017-06-26T05:34:23.397Z,79.90
2017-06-26T05:36:50.948Z,79.90
2017-06-26T05:39:18.407Z,80.10
2017-06-26T05:41:45.964Z,80.40
2017-06-26T05:44:13.528Z,80.60
2017-06-26T05:46:41.090Z,80.40
2017-06-26T05:49:08.643Z,81.00
2017-06-26T05:51:36.109Z,81.20
2017-06-26T05:54:04.371Z,81.00
2017-06-26T05:56:31.830Z,80.90
2017-06-26T05:58:59.279Z,80.60
2017-06-26T06:01:26.845Z,80.70
2017-06-26T06:03:54.299Z,81.00
2017-06-26T06:06:21.758Z,81.50
2017-06-26T06:08:49.218Z,81.50
2017-06-26T06:11:16.775Z,81.50
2017-06-26T06:13:44.240Z,81.30
2017-06-26T06:16:11.699Z,82.00
2017-06-26T06:18:39.935Z,81.30
2017-06-26T06:21:07.411Z,81.20
2017-06-26T06:23:34.869Z,81.10
2017-06-26T06:26:02.427Z,81.50
2017-06-26T06:28:29.892Z,80.00
2017-06-26T06:30:57.443Z,78.20
2017-06-26T06:33:24.912Z,78.90
2017-06-26T06:35:52.371Z,79.60
2017-06-26T06:38:20.608Z,77.90
2017-06-26T06:40:48.064Z,77.80
2017-06-26T06:43:15.556Z,78.70
2017-06-26T06:45:43.014Z,78.80
2017-06-26T06:48:10.481Z,78.60
2017-06-26T06:50:38.700Z,80.10
2017-06-26T06:53:06.165Z,80.00
2017-06-26T06:55:33.662Z,79.70
2017-06-26T06:58:01.894Z,79.00
2017-06-26T07:00:29.399Z,79.20
2017-06-26T07:02:57.652Z,79.00
2017-06-26T07:05:25.217Z,79.00
2017-06-26T07:07:52.699Z,78.90
2017-06-26T07:10:20.223Z,78.30
2017-06-26T07:12:47.730Z,78.10
2017-06-26T07:15:15.251Z,78.60
2017-06-26T07:17:42.810Z,78.70
2017-06-26T07:20:10.366Z,78.10
2017-06-26T07:22:37.824Z,78.40
2017-06-26T07:25:05.305Z,78.50
2017-06-26T07:27:33.557Z,77.80
2017-06-26T07:30:01.109Z,77.70
2017-06-26T07:32:28.674Z,77.50
2017-06-26T07:34:56.149Z,76.10
2017-06-26T07:37:24.373Z,77.00
2017-06-26T07:39:51.919Z,77.00
2017-06-26T07:42:19.418Z,76.50
2017-06-26T07:44:46.884Z,75.80
2017-06-26T07:47:15.114Z,75.30
2017-06-26T07:49:42.571Z,75.80
2017-06-26T07:52:10.055Z,75.10
2017-06-26T07:54:37.631Z,73.50
2017-06-26T07:57:05.084Z,75.20
2017-06-26T07:59:32.640Z,75.30
2017-06-26T08:02:00.108Z,73.60
2017-06-26T08:04:27.569Z,73.00
2017-06-26T08:06:55.044Z,73.40
2017-06-26T08:09:22.582Z,74.40
2017-06-26T08:11:50.836Z,73.10
2017-06-26T08:14:18.396Z,72.90
2017-06-26T08:16:45.948Z,73.20
2017-06-26T08:19:13.404Z,73.20
2017-06-26T08:21:40.860Z,71.80
2017-06-26T08:24:08.429Z,71.00
2017-06-26T08:26:35.892Z,70.50
2017-06-26T08:29:03.413Z,71.40
2017-06-26T08:31:30.881Z,70.80
2017-06-26T08:33:58.354Z,70.80
2017-06-26T08:36:25.919Z,70.10
2017-06-26T08:38:53.385Z,70.00
2017-06-26T08:41:21.663Z,68.60
2017-06-26T08:43:49.889Z,68.30
2017-06-26T08:46:17.344Z,68.10
2017-06-26T08:48:44.842Z,64.30
2017-06-26T08:51:12.405Z,67.20
2017-06-26T08:53:40.660Z,64.30
2017-06-26T08:56:08.151Z,64.30
2017-06-26T08:58:36.402Z,63.20
2017-06-26T09:01:03.959Z,63.00
2017-06-26T09:03:31.445Z,64.20
2017-06-26T09:05:59.672Z,61.80
2017-06-26T09:08:27.145Z,61.60
2017-06-26T09:10:54.639Z,63.40
2017-06-26T09:13:22.131Z,61.60
2017-06-26T09:15:49.613Z,63.20
2017-06-26T09:18:17.112Z,59.80
2017-06-26T09:20:44.627Z,61.10
2017-06-26T09:23:12.132Z,59.80
2017-06-26T09:25:39.648Z,59.70
2017-06-26T09:28:07.096Z,59.80
2017-06-26T09:30:34.556Z,60.10
2017-06-26T09:33:02.015Z,60.50
2017-06-26T09:35:29.478Z,59.80
2017-06-26T09:37:57.038Z,59.30
2017-06-26T09:40:24.590Z,58.90
2017-06-26T09:42:52.044Z,59.40
2017-06-26T09:45:19.502Z,58.60
2017-06-26T09:47:47.065Z,58.50
2017-06-26T09:50:14.541Z,57.40
2017-06-26T09:52:42.785Z,57.30
2017-06-26T09:55:10.310Z,56.80
2017-06-26T09:57:37.768Z,55.70
2017-06-26T10:00:05.274Z,56.40
2017-06-26T10:02:32.830Z,56.60
2017-06-26T10:05:00.392Z,55.20
2017-06-26T10:07:28.030Z,53.70
2017-06-26T10:09:55.601Z,52.70
2017-06-26T10:12:23.073Z,53.50
2017-06-26T10:14:51.404Z,54.10
2017-06-26T10:17:18.861Z,54.00
2017-06-26T10:19:46.314Z,53.70
2017-06-26T10:22:13.770Z,53.30
2017-06-26T10:24:41.229Z,52.70
2017-06-26T10:27:08.680Z,52.70
2017-06-26T10:29:36.135Z,52.10
2017-06-26T10:32:03.593Z,53.20
2017-06-26T10:34:31.082Z,52.80
2017-06-26T10:36:58.652Z,53.20
2017-06-26T10:39:26.117Z,52.70
2017-06-26T10:41:54.379Z,52.20
2017-06-26T10:44:21.833Z,52.20
2017-06-26T10:46:49.396Z,52.60
2017-06-26T10:49:17.012Z,52.30
2017-06-26T10:51:44.473Z,52.50
2017-06-26T10:54:11.976Z,51.50
2017-06-26T10:56:39.441Z,51.40
2017-06-26T10:59:07.697Z,53.40
2017-06-26T11:01:35.262Z,53.40
2017-06-26T11:04:02.812Z,53.20
2017-06-26T11:06:30.379Z,53.20
2017-06-26T11:08:57.833Z,52.80
2017-06-26T11:11:25.401Z,52.80
2017-06-26T11:13:52.957Z,52.90
2017-06-26T11:16:20.416Z,53.50
2017-06-26T11:18:48.672Z,54.40
2017-06-26T11:21:16.297Z,53.70
2017-06-26T11:23:43.758Z,54.10
2017-06-26T11:26:11.259Z,54.10
2017-06-26T11:28:39.482Z,55.00
2017-06-26T11:31:07.043Z,55.00
2017-06-26T11:33:34.546Z,54.30
2017-06-26T11:36:01.996Z,54.50
2017-06-26T11:38:29.451Z,54.00
2017-06-26T11:40:56.913Z,54.30
2017-06-26T11:43:24.473Z,54.40
2017-06-26T11:45:52.020Z,54.10
2017-06-26T11:48:19.588Z,53.70
2017-06-26T11:50:47.856Z,52.70
2017-06-26T11:53:15.429Z,52.60
2017-06-26T11:55:42.889Z,53.40
2017-06-26T11:58:10.357Z,53.70
2017-06-26T12:00:38.604Z,53.20
2017-06-26T12:03:06.746Z,53.20
2017-06-26T12:05:34.235Z,49.80
2017-06-26T12:08:01.693Z,50.00
2017-06-26T12:10:29.265Z,51.30
2017-06-26T12:12:56.819Z,51.00
2017-06-26T12:15:24.295Z,52.00
2017-06-26T12:17:52.509Z,50.10
2017-06-26T12:20:20.008Z,50.10
2017-06-26T12:22:47.561Z,50.00
2017-06-26T12:25:15.038Z,49.90
2017-06-26T12:27:43.255Z,51.00
2017-06-26T12:30:10.749Z,51.40
2017-06-26T12:32:38.223Z,50.80
2017-06-26T12:35:06.450Z,49.90
2017-06-26T12:37:33.995Z,49.80
2017-06-26T12:40:01.452Z,48.30
2017-06-26T12:42:28.906Z,47.40
2017-06-26T12:44:56.415Z,48.30
2017-06-26T12:47:23.966Z,47.50
2017-06-26T12:49:51.425Z,48.30
2017-06-26T12:52:18.877Z,48.20
2017-06-26T12:54:46.437Z,48.00
2017-06-26T12:57:13.888Z,47.30
2017-06-26T12:59:42.170Z,47.20
2017-06-26T13:02:09.639Z,46.20
2017-06-26T13:04:37.199Z,46.20
2017-06-26T13:07:04.752Z,45.30
2017-06-26T13:09:32.300Z,45.90
2017-06-26T13:11:59.852Z,46.60
2017-06-26T13:14:27.417Z,47.00
2017-06-26T13:16:54.868Z,45.70
2017-06-26T13:19:22.437Z,46.10
2017-06-26T13:21:49.889Z,46.40
2017-06-26T13:24:17.348Z,46.00
2017-06-26T13:26:44.800Z,45.80
2017-06-26T13:29:12.278Z,45.70
2017-06-26T13:31:40.501Z,46.80
2017-06-26T13:34:07.993Z,46.70
2017-06-26T13:36:35.554Z,46.60
2017-06-26T13:39:03.008Z,47.60
2017-06-26T13:41:30.470Z,47.80
2017-06-26T13:43:58.033Z,46.90
2017-06-26T13:46:25.499Z,47.20
2017-06-26T13:48:53.734Z,47.10
2017-06-26T13:51:21.180Z,47.10
2017-06-26T13:53:48.649Z,47.50
2017-06-26T13:56:16.122Z,47.70
2017-06-26T13:58:43.682Z,48.00
2017-06-26T14:01:11.146Z,47.80
2017-06-26T14:03:38.598Z,48.30
2017-06-26T14:06:06.815Z,48.20
2017-06-26T14:08:34.318Z,48.20
2017-06-26T14:11:01.792Z,47.20
2017-06-26T14:13:30.021Z,47.10
2017-06-26T14:15:57.507Z,47.10
2017-06-26T14:18:25.063Z,45.40
2017-06-26T14:20:52.634Z,44.90
2017-06-26T14:23:20.199Z,45.30
2017-06-26T14:25:47.658Z,46.40
2017-06-26T14:28:15.124Z,46.00
2017-06-26T14:30:43.343Z,47.10
2017-06-26T14:33:10.805Z,47.00
2017-06-26T14:35:38.299Z,47.10
2017-06-26T14:38:06.522Z,47.50
2017-06-26T14:40:33.981Z,46.90
2017-06-26T14:43:01.436Z,47.00
2017-06-26T14:45:28.902Z,47.50
2017-06-26T14:47:56.404Z,47.50
2017-06-26T14:50:23.859Z,46.80
2017-06-26T14:52:51.326Z,46.70
2017-06-26T14:55:19.554Z,46.80
2017-06-26T14:57:47.017Z,46.70
2017-06-26T15:00:14.499Z,47.10
2017-06-26T15:02:41.948Z,47.40
2017-06-26T15:05:09.505Z,47.50
2017-06-26T15:07:36.960Z,47.00
2017-06-26T15:10:04.417Z,46.90
2017-06-26T15:12:31.978Z,47.20
2017-06-26T15:14:59.451Z,47.60
2017-06-26T15:17:27.767Z,48.10
2017-06-26T15:19:55.224Z,48.00
2017-06-26T15:22:22.688Z,47.60
2017-06-26T15:24:50.156Z,47.70
2017-06-26T15:27:17.627Z,46.80
2017-06-26T15:29:45.187Z,47.30
2017-06-26T15:32:12.636Z,47.20
2017-06-26T15:34:40.209Z,47.40
2017-06-26T15:37:07.664Z,47.30
2017-06-26T15:39:35.225Z,47.10
2017-06-26T15:42:02.695Z,47.70
2017-06-26T15:44:30.265Z,46.90
2017-06-26T15:46:58.520Z,46.10
2017-06-26T15:49:25.977Z,46.10
2017-06-26T15:51:53.432Z,46.60
2017-06-26T15:54:20.884Z,47.00
2017-06-26T15:56:48.353Z,47.40
2017-06-26T15:59:15.807Z,47.30
2017-06-26T16:01:44.068Z,47.50
2017-06-26T16:04:11.633Z,47.50
2017-06-26T16:06:39.200Z,47.80
2017-06-26T16:09:06.760Z,48.20
2017-06-26T16:11:34.212Z,48.90
2017-06-26T16:14:01.660Z,47.20
2017-06-26T16:16:29.113Z,46.90
2017-06-26T16:18:56.572Z,45.70
2017-06-26T16:21:24.128Z,45.40
2017-06-26T16:23:51.685Z,44.80
2017-06-26T16:26:19.158Z,44.50
2017-06-26T16:28:46.701Z,45.60
2017-06-26T16:31:14.166Z,46.30
2017-06-26T16:33:41.625Z,46.50
2017-06-26T16:36:09.076Z,46.10
2017-06-26T16:38:36.542Z,47.10
2017-06-26T16:41:03.992Z,46.90
2017-06-26T16:43:31.540Z,46.40
2017-06-26T16:45:58.998Z,45.80
2017-06-26T16:48:26.459Z,45.90
2017-06-26T16:50:54.011Z,45.80
2017-06-26T16:53:21.636Z,45.30
2017-06-26T16:55:49.142Z,44.90
2017-06-26T16:58:16.687Z,45.70
2017-06-26T17:00:44.139Z,45.60
2017-06-26T17:03:11.700Z,46.20
2017-06-26T17:05:39.155Z,46.40
2017-06-26T17:08:06.616Z,46.50
2017-06-26T17:10:34.172Z,46.60
2017-06-26T17:13:01.668Z,46.70
2017-06-26T17:15:29.883Z,46.10
2017-06-26T17:17:57.354Z,46.10
2017-06-26T17:20:24.809Z,45.70
2017-06-26T17:22:52.269Z,45.00
2017-06-26T17:25:19.719Z,45.20
2017-06-26T17:27:47.306Z,44.90
2017-06-26T17:30:14.770Z,45.20
2017-06-26T17:32:43.020Z,45.60
2017-06-26T17:35:10.475Z,45.40
2017-06-26T17:37:37.943Z,45.90
2017-06-26T17:40:05.491Z,45.80
2017-06-26T17:42:32.974Z,46.30
2017-06-26T17:45:01.250Z,46.30
2017-06-26T17:47:29.509Z,46.10
2017-06-26T17:49:56.964Z,46.10
2017-06-26T17:52:24.520Z,46.10
2017-06-26T17:54:51.981Z,45.30
2017-06-26T17:57:19.450Z,45.10
2017-06-26T17:59:47.677Z,45.80
2017-06-26T18:02:15.140Z,45.50
2017-06-26T18:04:42.648Z,45.70
2017-06-26T18:07:10.878Z,46.40
2017-06-26T18:09:38.361Z,46.30
2017-06-26T18:12:05.917Z,46.60
2017-06-26T18:14:34.179Z,47.20
2017-06-26T18:17:01.636Z,47.10
2017-06-26T18:19:29.118Z,47.10
2017-06-26T18:21:57.371Z,46.90
2017-06-26T18:24:24.937Z,46.80
2017-06-26T18:26:52.397Z,47.30
2017-06-26T18:29:19.866Z,47.30
2017-06-26T18:31:48.103Z,48.10
2017-06-26T18:34:15.555Z,48.10
2017-06-26T18:36:43.031Z,47.90
2017-06-26T18:39:10.501Z,48.00
2017-06-26T18:41:38.048Z,48.20
2017-06-26T18:44:05.518Z,48.30
2017-06-26T18:46:32.972Z,48.50
2017-06-26T18:49:00.455Z,48.60
2017-06-26T18:51:28.688Z,48.90
2017-06-26T18:53:56.171Z,48.90
2017-06-26T18:56:24.430Z,49.30
2017-06-26T18:58:51.889Z,49.20
2017-06-26T19:01:19.441Z,49.30
2017-06-26T19:03:46.937Z,49.30
2017-06-26T19:06:14.447Z,49.30
2017-06-26T19:08:41.935Z,49.50
2017-06-26T19:11:10.199Z,50.40
2017-06-26T19:13:37.754Z,49.80
2017-06-26T19:16:05.314Z,50.10
2017-06-26T19:18:32.779Z,50.20
2017-06-26T19:21:01.000Z,50.60
2017-06-26T19:23:28.457Z,50.20
2017-06-26T19:25:55.916Z,50.20
2017-06-26T19:28:23.434Z,50.40
2017-06-26T19:30:51.705Z,51.60
2017-06-26T19:33:19.945Z,51.20
2017-06-26T19:35:47.446Z,51.20
2017-06-26T19:38:15.697Z,51.40
2017-06-26T19:40:43.311Z,51.40
2017-06-26T19:43:10.779Z,52.00
2017-06-26T19:45:38.237Z,52.50
2017-06-26T19:48:05.691Z,52.10
2017-06-26T19:50:33.182Z,52.50
2017-06-26T19:53:00.727Z,51.70
2017-06-26T19:55:28.199Z,51.80
2017-06-26T19:57:55.745Z,52.00
2017-06-26T20:00:23.203Z,52.10
2017-06-26T20:02:50.765Z,52.00
2017-06-26T20:05:18.342Z,52.00
2017-06-26T20:07:45.887Z,52.30
2017-06-26T20:10:13.332Z,52.20
2017-06-26T20:12:40.792Z,52.00
2017-06-26T20:15:08.363Z,51.90
2017-06-26T20:17:35.913Z,51.90
2017-06-26T20:20:03.464Z,52.30
2017-06-26T20:22:30.924Z,52.40
2017-06-26T20:24:58.485Z,52.10
2017-06-26T20:27:26.093Z,52.10
2017-06-26T20:29:53.597Z,52.30
2017-06-26T20:32:21.161Z,52.50
2017-06-26T20:34:48.721Z,52.00
2017-06-26T20:37:16.237Z,52.10
2017-06-26T20:39:43.688Z,51.70
2017-06-26T20:42:11.155Z,51.70
2017-06-26T20:44:38.621Z,51.70
2017-06-26T20:47:06.106Z,52.00
2017-06-26T20:49:33.620Z,51.70
2017-06-26T20:52:01.092Z,51.80
2017-06-26T20:54:28.561Z,52.10
2017-06-26T20:56:56.033Z,52.10
2017-06-26T20:59:23.488Z,52.00
2017-06-26T21:01:50.956Z,52.00
2017-06-26T21:04:18.454Z,52.30
2017-06-26T21:06:45.924Z,52.30
2017-06-26T21:09:13.373Z,52.50
2017-06-26T21:11:40.932Z,52.90
2017-06-26T21:14:08.434Z,53.10
2017-06-26T21:16:35.901Z,52.40
2017-06-26T21:19:03.457Z,52.40
2017-06-26T21:21:31.015Z,52.40
2017-06-26T21:23:58.566Z,52.60
2017-06-26T21:26:26.116Z,52.40
2017-06-26T21:28:53.571Z,52.60
2017-06-26T21:31:21.198Z,52.40
2017-06-26T21:33:48.707Z,52.60
2017-06-26T21:36:16.180Z,52.70
2017-06-26T21:38:44.395Z,53.10
2017-06-26T21:41:11.853Z,53.10
2017-06-26T21:43:39.311Z,52.70
2017-06-26T21:46:06.802Z,52.80
2017-06-26T21:48:34.256Z,52.30
2017-06-26T21:51:01.714Z,52.30
2017-06-26T21:53:29.260Z,52.10
2017-06-26T21:55:56.736Z,52.20
2017-06-26T21:58:24.183Z,52.50
2017-06-26T22:00:51.632Z,52.20
2017-06-26T22:03:19.197Z,52.30
2017-06-26T22:05:46.785Z,52.30
2017-06-26T22:08:15.014Z,52.30
2017-06-26T22:10:45.502Z,52.20
2017-06-26T22:13:12.971Z,52.20
2017-06-26T22:15:40.427Z,52.60
2017-06-26T22:18:07.916Z,53.00
2017-06-26T22:20:35.393Z,53.30
2017-06-26T22:23:02.850Z,53.20
2017-06-26T22:25:30.401Z,53.10
2017-06-26T22:27:57.936Z,52.90
2017-06-26T22:30:25.473Z,53.20
2017-06-26T22:32:52.963Z,53.70
2017-06-26T22:35:20.422Z,53.60
2017-06-26T22:37:47.982Z,54.70
2017-06-26T22:40:15.550Z,54.10
2017-06-26T22:42:43.114Z,54.30
2017-06-26T22:45:10.582Z,54.70
2017-06-26T22:47:38.810Z,55.20
2017-06-26T22:50:06.268Z,55.20
2017-06-26T22:52:33.746Z,55.40
2017-06-26T22:55:01.303Z,55.50
2017-06-26T22:57:28.765Z,55.60
2017-06-26T22:59:56.315Z,55.70
2017-06-26T23:02:23.871Z,55.80
2017-06-26T23:04:51.358Z,56.00
2017-06-26T23:07:19.618Z,56.10
2017-06-26T23:09:47.101Z,56.00
2017-06-26T23:12:14.639Z,56.00
2017-06-26T23:14:42.092Z,56.10
2017-06-26T23:17:09.619Z,56.10
2017-06-26T23:19:37.085Z,56.10
2017-06-26T23:22:04.666Z,56.70
2017-06-26T23:24:32.132Z,56.20
2017-06-26T23:27:00.393Z,56.20
2017-06-26T23:29:27.854Z,56.20
2017-06-26T23:31:55.321Z,56.20
2017-06-26T23:34:23.581Z,55.00
2017-06-26T23:36:51.041Z,54.90
2017-06-26T23:39:18.497Z,54.90
2017-06-26T23:41:45.957Z,55.30
2017-06-26T23:44:14.183Z,55.10
2017-06-26T23:46:41.654Z,55.00
2017-06-26T23:49:09.104Z,54.60
2017-06-26T23:51:36.569Z,54.50
2017-06-26T23:54:04.032Z,54.20
2017-06-26T23:56:31.502Z,54.20
2017-06-26T23:58:58.957Z,54.10
